Time;durP1;ratioP1;P1;durP2;ratioP2;P2;SDS_P1;SDS_P2;PMS_P1;PMS_P2;Temp;Humidity;BMP_temperature;BMP_pressure;BME280_temperature;BME280_humidity;BME280_pressure;Samples;Min_cycle;Max_cycle;Signal;HPM_P1;HPM_P2
2023/08/21 00:00:15;;;;;;;4.53;4.13;;;20.40;99.90;;;;;;5087845;28;20876;-82
2023/08/21 00:02:42;;;;;;;4.63;4.33;;;20.30;99.90;;;;;;5089162;28;20483;-78
2023/08/21 00:05:10;;;;;;;5.60;5.10;;;20.30;99.90;;;;;;5081393;28;20455;-78
2023/08/21 00:07:37;;;;;;;5.30;4.83;;;20.20;99.90;;;;;;5086098;28;20463;-79
2023/08/21 00:10:04;;;;;;;4.70;4.30;;;20.20;99.90;;;;;;5088032;28;20933;-79
2023/08/21 00:12:31;;;;;;;6.33;5.50;;;20.10;99.90;;;;;;5075157;28;20456;-80
2023/08/21 00:15:00;;;;;;;6.13;5.53;;;20.10;99.90;;;;;;5083569;28;20494;-78
2023/08/21 00:17:27;;;;;;;5.20;4.70;;;19.90;99.90;;;;;;5089173;28;20500;-79
2023/08/21 00:19:54;;;;;;;5.87;4.50;;;19.90;99.90;;;;;;5081936;28;20859;-78
2023/08/21 00:22:21;;;;;;;4.93;4.53;;;19.80;99.90;;;;;;5082619;28;20475;-77
2023/08/21 00:24:47;;;;;;;4.37;3.97;;;19.80;99.90;;;;;;5080180;28;20499;-78
2023/08/21 00:27:14;;;;;;;5.67;5.10;;;19.80;99.90;;;;;;5085972;28;20991;-79
2023/08/21 00:29:41;;;;;;;4.70;4.30;;;19.70;99.90;;;;;;5084071;28;20448;-77
2023/08/21 00:32:11;;;;;;;5.20;4.70;;;19.80;99.90;;;;;;5082849;28;20467;-78
2023/08/21 00:34:38;;;;;;;5.57;5.13;;;19.90;99.90;;;;;;5082371;28;20505;-78
2023/08/21 00:37:05;;;;;;;8.80;5.53;;;20.00;99.90;;;;;;5087217;28;21141;-80
2023/08/21 00:39:32;;;;;;;5.27;4.80;;;20.00;99.90;;;;;;5092507;28;20864;-78
2023/08/21 00:41:59;;;;;;;4.70;4.30;;;20.00;99.90;;;;;;5084568;28;20466;-77
2023/08/21 00:44:26;;;;;;;6.43;4.50;;;20.00;99.90;;;;;;5079100;28;20452;-77
2023/08/21 00:46:53;;;;;;;5.20;4.80;;;19.90;99.90;;;;;;5085360;28;20475;-81
2023/08/21 00:49:22;;;;;;;4.87;4.47;;;19.80;99.90;;;;;;5079994;28;20447;-77
2023/08/21 00:51:51;;;;;;;5.93;4.10;;;19.80;99.90;;;;;;5088717;28;20447;-77
2023/08/21 00:54:18;;;;;;;5.13;4.73;;;19.80;99.90;;;;;;5083190;28;20870;-78
2023/08/21 00:56:45;;;;;;;4.73;4.33;;;19.80;99.90;;;;;;5088116;28;20527;-81
2023/08/21 00:59:13;;;;;;;5.60;5.20;;;19.80;99.90;;;;;;5085996;28;20549;-80
2023/08/21 01:01:41;;;;;;;5.40;4.90;;;19.80;99.90;;;;;;5086125;28;20532;-77
2023/08/21 01:04:09;;;;;;;5.60;5.10;;;20.00;99.90;;;;;;5087003;28;20514;-77
2023/08/21 01:06:37;;;;;;;5.80;5.20;;;20.10;99.90;;;;;;5075235;28;20878;-79
2023/08/21 01:09:10;;;;;;;4.07;3.77;;;20.10;99.90;;;;;;5087230;28;20546;-79
2023/08/21 01:11:44;;;;;;;4.37;4.07;;;20.00;99.90;;;;;;5074627;28;20478;-77
2023/08/21 01:14:18;;;;;;;5.10;4.70;;;19.90;99.90;;;;;;5078590;28;20537;-77
2023/08/21 01:16:47;;;;;;;5.10;4.70;;;19.80;99.90;;;;;;5071833;28;20490;-81
2023/08/21 01:19:24;;;;;;;6.03;4.90;;;19.80;99.90;;;;;;5087776;28;20469;-80
2023/08/21 01:21:53;;;;;;;5.27;4.80;;;19.80;99.90;;;;;;5087544;28;20884;-79
2023/08/21 01:24:22;;;;;;;5.60;4.63;;;19.70;99.90;;;;;;5083860;28;20941;-78
2023/08/21 01:26:48;;;;;;;9.23;5.23;;;19.60;99.90;;;;;;5079733;28;21060;-79
2023/08/21 01:29:16;;;;;;;6.40;5.60;;;19.60;99.90;;;;;;5073383;28;20488;-77
2023/08/21 01:31:49;;;;;;;7.13;6.07;;;19.50;99.90;;;;;;5091829;28;20454;-78
2023/08/21 01:34:17;;;;;;;6.03;4.37;;;19.50;99.90;;;;;;5082142;28;20483;-79
2023/08/21 01:36:44;;;;;;;5.57;5.07;;;19.50;99.90;;;;;;5082510;28;20512;-80
2023/08/21 01:39:11;;;;;;;5.50;5.00;;;19.50;99.90;;;;;;5079111;28;20516;-79
2023/08/21 01:41:39;;;;;;;5.83;5.40;;;19.50;99.90;;;;;;5087027;28;20441;-78
2023/08/21 01:44:06;;;;;;;5.50;5.07;;;19.50;99.90;;;;;;5082239;28;20515;-79
2023/08/21 01:46:33;;;;;;;6.13;5.30;;;19.50;99.90;;;;;;5080837;28;21018;-80
2023/08/21 01:49:00;;;;;;;5.67;5.17;;;19.40;99.90;;;;;;5082054;28;20497;-79
2023/08/21 01:51:27;;;;;;;4.60;4.20;;;19.30;99.90;;;;;;5087471;28;20435;-77
2023/08/21 01:53:54;;;;;;;5.40;4.90;;;19.30;99.90;;;;;;5082449;28;20466;-77
2023/08/21 01:56:21;;;;;;;5.77;5.37;;;19.20;99.90;;;;;;5076912;28;20488;-80
2023/08/21 01:58:49;;;;;;;5.80;5.30;;;19.10;99.90;;;;;;5086840;28;20507;-78
2023/08/21 02:01:17;;;;;;;8.20;5.30;;;19.10;99.90;;;;;;5079637;28;20519;-79
2023/08/21 02:03:44;;;;;;;8.40;5.80;;;19.10;99.90;;;;;;5074197;28;20993;-79
2023/08/21 02:06:11;;;;;;;5.23;4.83;;;19.00;99.90;;;;;;5075056;28;20511;-80
2023/08/21 02:08:38;;;;;;;4.43;4.03;;;19.00;99.90;;;;;;5084104;28;20468;-78
2023/08/21 02:11:05;;;;;;;5.00;4.60;;;19.00;99.90;;;;;;5086951;28;20446;-76
2023/08/21 02:13:33;;;;;;;7.70;5.40;;;18.90;99.90;;;;;;5086378;28;20860;-78
2023/08/21 02:16:02;;;;;;;6.43;5.83;;;18.90;99.90;;;;;;5083619;28;20498;-80
2023/08/21 02:18:29;;;;;;;5.90;5.40;;;18.90;99.90;;;;;;5087014;28;20537;-77
2023/08/21 02:20:56;;;;;;;5.17;4.77;;;18.90;99.90;;;;;;5068828;28;20479;-78
2023/08/21 02:23:24;;;;;;;5.73;5.23;;;18.90;99.90;;;;;;5081713;28;20505;-78
2023/08/21 02:25:51;;;;;;;6.27;4.83;;;18.90;99.90;;;;;;5092781;28;20454;-78
2023/08/21 02:28:18;;;;;;;5.47;5.07;;;18.90;99.90;;;;;;5085079;28;20450;-78
2023/08/21 02:30:46;;;;;;;6.23;5.63;;;18.90;99.90;;;;;;5080988;28;20461;-79
2023/08/21 02:33:14;;;;;;;5.43;5.03;;;18.90;99.90;;;;;;5093161;28;20491;-77
2023/08/21 02:35:41;;;;;;;6.53;5.93;;;18.80;99.90;;;;;;5092914;28;20458;-79
2023/08/21 02:38:08;;;;;;;5.40;5.00;;;18.90;99.90;;;;;;5081567;28;20459;-78
2023/08/21 02:40:35;;;;;;;5.30;4.90;;;18.80;99.90;;;;;;5088820;28;20450;-77
2023/08/21 02:43:02;;;;;;;5.93;4.90;;;18.70;99.90;;;;;;5090690;28;20483;-77
2023/08/21 02:45:29;;;;;;;5.50;5.10;;;18.60;99.90;;;;;;5081194;28;20524;-78
2023/08/21 02:47:56;;;;;;;4.20;3.90;;;18.70;99.90;;;;;;5091909;28;20990;-78
2023/08/21 02:50:24;;;;;;;5.60;5.10;;;18.70;99.90;;;;;;5093475;28;20470;-79
2023/08/21 02:52:51;;;;;;;6.50;5.90;;;18.60;99.90;;;;;;5078205;28;20581;-78
2023/08/21 02:55:18;;;;;;;5.93;5.47;;;18.60;99.90;;;;;;5084170;28;20451;-80
2023/08/21 02:57:45;;;;;;;6.33;5.83;;;18.50;99.90;;;;;;5076716;28;21301;-78
2023/08/21 03:00:12;;;;;;;5.50;5.10;;;18.40;99.90;;;;;;5092837;28;20470;-78
2023/08/21 03:02:42;;;;;;;5.77;5.37;;;18.30;99.90;;;;;;5085630;28;20463;-77
2023/08/21 03:05:10;;;;;;;6.10;5.60;;;18.30;99.90;;;;;;5092084;28;21013;-80
2023/08/21 03:07:38;;;;;;;6.87;6.27;;;18.30;99.90;;;;;;5085172;28;20471;-78
2023/08/21 03:10:07;;;;;;;5.27;4.87;;;18.40;99.90;;;;;;5073105;28;21072;-79
2023/08/21 03:12:34;;;;;;;5.73;5.23;;;18.30;99.90;;;;;;5080422;28;20450;-80
2023/08/21 03:15:01;;;;;;;6.23;5.57;;;18.30;99.90;;;;;;5086571;28;20562;-78
2023/08/21 03:17:28;;;;;;;6.00;4.90;;;18.30;99.90;;;;;;5072997;28;20921;-77
2023/08/21 03:19:55;;;;;;;5.80;5.20;;;18.20;99.90;;;;;;5079663;28;20824;-77
2023/08/21 03:22:23;;;;;;;9.07;5.77;;;18.20;99.90;;;;;;5080152;28;20444;-77
2023/08/21 03:24:51;;;;;;;6.93;6.33;;;18.20;99.90;;;;;;5072855;28;20494;-80
2023/08/21 03:27:19;;;;;;;6.13;5.53;;;18.10;99.90;;;;;;5082912;28;20436;-78
2023/08/21 03:29:48;;;;;;;5.37;4.87;;;18.10;99.90;;;;;;5077181;28;21005;-78
2023/08/21 03:32:16;;;;;;;6.23;5.17;;;18.10;99.90;;;;;;5075577;28;20464;-80
2023/08/21 03:34:43;;;;;;;6.13;5.57;;;18.10;99.90;;;;;;5084172;28;20447;-77
2023/08/21 03:37:10;;;;;;;5.07;4.67;;;18.10;99.90;;;;;;5078667;28;20458;-79
2023/08/21 03:39:38;;;;;;;5.57;5.17;;;18.10;99.90;;;;;;5078294;28;20445;-77
2023/08/21 03:42:07;;;;;;;9.37;6.90;;;18.10;99.90;;;;;;5083382;28;20544;-78
2023/08/21 03:44:34;;;;;;;6.43;5.93;;;18.00;99.90;;;;;;5088843;28;20554;-79
2023/08/21 03:47:01;;;;;;;5.43;5.00;;;17.90;99.90;;;;;;5081687;28;20461;-79
2023/08/21 03:49:28;;;;;;;5.47;4.90;;;17.90;99.90;;;;;;5083104;28;20503;-80
2023/08/21 03:51:55;;;;;;;6.60;6.07;;;17.80;99.90;;;;;;5084696;28;20507;-80
2023/08/21 03:54:22;;;;;;;6.50;5.90;;;17.80;99.90;;;;;;5085930;28;20514;-79
2023/08/21 03:56:49;;;;;;;6.33;4.47;;;17.80;99.90;;;;;;5086936;28;20462;-79
2023/08/21 03:59:17;;;;;;;7.23;6.60;;;17.80;99.90;;;;;;5083787;28;20448;-77
2023/08/21 04:01:44;;;;;;;6.23;5.63;;;17.90;99.90;;;;;;5079134;28;20522;-77
2023/08/21 04:04:11;;;;;;;7.00;6.10;;;17.80;99.90;;;;;;5078016;28;20943;-77
2023/08/21 04:06:38;;;;;;;9.23;5.60;;;17.80;99.90;;;;;;5070830;28;20981;-78
2023/08/21 04:09:06;;;;;;;5.93;5.43;;;17.90;99.90;;;;;;5080607;28;20494;-79
2023/08/21 04:11:33;;;;;;;6.23;5.70;;;17.90;99.90;;;;;;5068146;28;20458;-77
2023/08/21 04:14:01;;;;;;;7.50;6.50;;;17.90;99.90;;;;;;5079633;28;22635;-80
2023/08/21 04:16:30;;;;;;;7.90;5.67;;;17.90;99.90;;;;;;5071647;28;20849;-81
2023/08/21 04:18:57;;;;;;;5.77;5.23;;;17.90;99.90;;;;;;5074936;28;20461;-78
2023/08/21 04:21:24;;;;;;;5.87;5.40;;;17.90;99.90;;;;;;5085672;28;20532;-77
2023/08/21 04:23:51;;;;;;;6.80;6.20;;;17.90;99.90;;;;;;5067714;28;21024;-77
2023/08/21 04:26:18;;;;;;;6.97;6.40;;;18.00;99.90;;;;;;5070913;28;20482;-75
2023/08/21 04:28:46;;;;;;;6.23;5.43;;;18.10;99.90;;;;;;5067240;28;21144;-78
2023/08/21 04:31:13;;;;;;;7.10;6.40;;;18.00;99.90;;;;;;5068654;28;20477;-77
2023/08/21 04:33:41;;;;;;;6.07;5.53;;;18.10;99.90;;;;;;5070377;28;20501;-78
2023/08/21 04:36:08;;;;;;;7.63;6.93;;;18.20;99.90;;;;;;5079447;28;21203;-77
2023/08/21 04:38:35;;;;;;;5.63;5.13;;;18.20;99.90;;;;;;5072155;28;21004;-76
2023/08/21 04:41:08;;;;;;;7.73;6.97;;;18.20;99.90;;;;;;5068445;28;20476;-76
2023/08/21 04:43:35;;;;;;;6.60;6.10;;;18.20;99.90;;;;;;5071094;28;20487;-78
2023/08/21 04:46:03;;;;;;;6.37;5.80;;;18.30;99.90;;;;;;5070309;28;20471;-78
2023/08/21 04:48:30;;;;;;;6.80;6.20;;;18.40;99.90;;;;;;5076245;28;20469;-79
2023/08/21 04:50:58;;;;;;;7.30;6.60;;;18.40;99.90;;;;;;5080693;28;20509;-79
2023/08/21 04:53:25;;;;;;;6.80;6.20;;;18.40;99.90;;;;;;5087019;28;20462;-76
2023/08/21 04:55:52;;;;;;;7.80;7.10;;;18.50;99.90;;;;;;5090704;28;20464;-78
2023/08/21 04:58:19;;;;;;;8.83;7.30;;;18.50;99.90;;;;;;5084349;28;20463;-76
2023/08/21 05:00:46;;;;;;;5.90;5.40;;;18.50;99.90;;;;;;5084882;28;20460;-79
2023/08/21 05:03:13;;;;;;;5.87;5.27;;;18.50;99.90;;;;;;5073329;28;20463;-78
2023/08/21 05:05:40;;;;;;;6.03;5.53;;;18.50;99.90;;;;;;5082064;28;20763;-82
2023/08/21 05:08:08;;;;;;;5.60;5.20;;;18.60;99.90;;;;;;5086063;28;20441;-78
2023/08/21 05:10:35;;;;;;;8.90;6.57;;;18.70;99.90;;;;;;5067603;28;20499;-80
2023/08/21 05:13:04;;;;;;;5.90;5.30;;;18.80;99.90;;;;;;5069644;28;20437;-77
2023/08/21 05:15:33;;;;;;;6.40;5.80;;;19.00;99.90;;;;;;5077859;28;20511;-77
2023/08/21 05:18:00;;;;;;;5.37;4.97;;;19.10;99.90;;;;;;5068269;28;20460;-77
2023/08/21 05:20:27;;;;;;;7.70;5.83;;;19.00;99.90;;;;;;5078840;28;20552;-78
2023/08/21 05:22:53;;;;;;;6.60;6.07;;;19.20;99.90;;;;;;5078240;28;20520;-79
2023/08/21 05:25:22;;;;;;;11.10;6.70;;;19.30;99.90;;;;;;5076530;28;20887;-79
2023/08/21 05:27:49;;;;;;;10.17;6.17;;;19.30;99.90;;;;;;5072564;28;21020;-77
2023/08/21 05:30:15;;;;;;;6.13;5.60;;;19.50;99.90;;;;;;5067386;28;20494;-77
2023/08/21 05:32:43;;;;;;;5.33;4.93;;;19.70;99.90;;;;;;5068052;28;20547;-79
2023/08/21 05:35:10;;;;;;;7.33;6.20;;;19.80;99.90;;;;;;5073744;28;20440;-79
2023/08/21 05:37:37;;;;;;;6.40;5.90;;;19.90;99.90;;;;;;5066111;28;20539;-77
2023/08/21 05:40:07;;;;;;;5.50;4.83;;;20.10;99.90;;;;;;5075658;28;20495;-78
2023/08/21 05:42:36;;;;;;;5.87;5.37;;;20.00;99.90;;;;;;5067992;28;20451;-76
2023/08/21 05:45:03;;;;;;;5.47;4.87;;;20.00;99.90;;;;;;5077190;28;20559;-78
2023/08/21 05:47:30;;;;;;;6.27;4.53;;;20.20;99.90;;;;;;5069425;28;20543;-77
2023/08/21 05:49:57;;;;;;;7.70;7.10;;;20.40;99.90;;;;;;5073335;28;20447;-77
2023/08/21 05:52:24;;;;;;;11.93;6.30;;;20.50;99.90;;;;;;5073377;28;20518;-80
2023/08/21 05:54:51;;;;;;;7.03;6.17;;;20.50;99.90;;;;;;5085368;28;20475;-77
2023/08/21 05:57:18;;;;;;;6.90;5.60;;;20.60;99.90;;;;;;5077358;28;20448;-77
2023/08/21 05:59:47;;;;;;;8.67;6.20;;;20.60;99.90;;;;;;5082354;28;20518;-77
2023/08/21 06:02:15;;;;;;;5.67;5.17;;;20.50;99.90;;;;;;5079484;28;20552;-77
2023/08/21 06:04:43;;;;;;;5.13;4.73;;;20.50;99.90;;;;;;5086671;28;21194;-77
2023/08/21 06:07:10;;;;;;;6.30;5.20;;;20.50;99.90;;;;;;5073199;28;20482;-81
2023/08/21 06:09:37;;;;;;;5.97;5.47;;;20.60;99.90;;;;;;5084651;28;21197;-78
2023/08/21 06:12:04;;;;;;;6.33;5.83;;;20.70;99.90;;;;;;5080226;28;20450;-76
2023/08/21 06:14:31;;;;;;;6.13;5.40;;;21.00;99.90;;;;;;5070226;28;21051;-77
2023/08/21 06:17:00;;;;;;;6.60;5.90;;;21.30;99.90;;;;;;5077508;28;20447;-77
2023/08/21 06:19:27;;;;;;;6.60;6.00;;;21.60;99.90;;;;;;5081529;28;20891;-76
2023/08/21 06:21:55;;;;;;;5.33;4.83;;;21.70;99.90;;;;;;5074215;28;20504;-77
2023/08/21 06:24:22;;;;;;;6.50;5.80;;;21.80;99.90;;;;;;5086313;28;20551;-76
2023/08/21 06:26:52;;;;;;;6.20;5.50;;;22.00;99.90;;;;;;5075215;28;20627;-89
2023/08/21 06:29:20;;;;;;;5.17;4.77;;;22.30;99.90;;;;;;5084533;28;21002;-79
2023/08/21 06:31:47;;;;;;;6.90;6.20;;;22.40;99.90;;;;;;5081950;28;20447;-75
2023/08/21 06:34:15;;;;;;;5.63;5.10;;;22.40;99.90;;;;;;5069437;28;20467;-77
2023/08/21 06:36:42;;;;;;;5.83;5.23;;;22.50;99.90;;;;;;5073082;28;20513;-80
2023/08/21 06:39:09;;;;;;;6.07;5.57;;;22.60;99.90;;;;;;5068948;28;20459;-79
2023/08/21 06:41:36;;;;;;;5.20;4.80;;;22.70;99.90;;;;;;5067045;28;20951;-78
2023/08/21 06:44:03;;;;;;;5.07;4.67;;;22.80;99.90;;;;;;5071719;28;20486;-76
2023/08/21 06:46:30;;;;;;;5.60;5.10;;;22.90;99.90;;;;;;5070894;28;20517;-77
2023/08/21 06:48:58;;;;;;;6.47;5.87;;;23.00;99.90;;;;;;5075841;28;20463;-75
2023/08/21 06:51:26;;;;;;;6.00;5.50;;;23.20;99.90;;;;;;5074082;28;20514;-76
2023/08/21 06:53:53;;;;;;;6.87;6.20;;;23.30;99.90;;;;;;5073060;28;20466;-76
2023/08/21 06:56:20;;;;;;;6.10;5.60;;;23.30;99.90;;;;;;5083453;28;20502;-76
2023/08/21 06:58:47;;;;;;;5.67;5.20;;;23.60;99.90;;;;;;5086834;28;20512;-79
2023/08/21 07:01:14;;;;;;;7.10;5.07;;;23.70;99.90;;;;;;5075602;28;21171;-79
2023/08/21 07:03:41;;;;;;;5.87;5.27;;;23.90;99.90;;;;;;5078773;28;20454;-75
2023/08/21 07:06:08;;;;;;;6.20;5.70;;;23.90;99.90;;;;;;5078894;28;20553;-77
2023/08/21 07:08:37;;;;;;;6.97;6.37;;;23.80;99.90;;;;;;5086155;28;20435;-77
2023/08/21 07:11:05;;;;;;;6.20;5.20;;;23.70;99.90;;;;;;5084286;28;20454;-75
2023/08/21 07:13:32;;;;;;;6.30;5.70;;;24.00;99.90;;;;;;5075215;28;20538;-75
2023/08/21 07:16:02;;;;;;;7.53;6.30;;;24.10;99.90;;;;;;5085405;28;20495;-74
2023/08/21 07:18:28;;;;;;;5.67;5.27;;;24.40;99.90;;;;;;5078016;28;20537;-78
2023/08/21 07:20:55;;;;;;;9.63;5.83;;;24.70;99.90;;;;;;5082254;28;20435;-76
2023/08/21 07:23:22;;;;;;;6.30;4.80;;;24.70;99.90;;;;;;5070861;28;20443;-76
2023/08/21 07:25:51;;;;;;;7.53;4.97;;;24.80;99.90;;;;;;5073370;28;20516;-75
2023/08/21 07:28:18;;;;;;;8.83;5.47;;;24.70;99.90;;;;;;5074787;28;20448;-76
2023/08/21 07:30:45;;;;;;;6.57;5.90;;;24.60;99.90;;;;;;5074956;28;20472;-76
2023/08/21 07:33:12;;;;;;;7.27;6.53;;;24.80;99.90;;;;;;5079033;28;20956;-78
2023/08/21 07:35:39;;;;;;;9.33;4.77;;;24.70;99.90;;;;;;5078190;28;20510;-81
2023/08/21 07:38:06;;;;;;;6.77;5.90;;;24.90;99.90;;;;;;5075715;28;20450;-76
2023/08/21 07:40:33;;;;;;;8.70;6.13;;;25.10;99.90;;;;;;5081633;28;20549;-81
2023/08/21 07:43:01;;;;;;;11.10;7.23;;;25.00;99.90;;;;;;5069193;28;20533;-74
2023/08/21 07:45:28;;;;;;;5.03;4.73;;;25.10;99.90;;;;;;5077621;28;20483;-76
2023/08/21 07:47:55;;;;;;;7.93;5.80;;;25.00;99.90;;;;;;5075917;28;20754;-76
2023/08/21 07:50:22;;;;;;;9.03;6.97;;;25.10;99.90;;;;;;5082877;28;20439;-76
2023/08/21 07:52:49;;;;;;;6.50;5.90;;;25.10;99.90;;;;;;5070505;28;20468;-75
2023/08/21 07:55:16;;;;;;;7.47;5.53;;;25.30;99.90;;;;;;5077555;28;20918;-77
2023/08/21 07:57:43;;;;;;;6.93;5.60;;;25.60;99.90;;;;;;5082453;28;20462;-76
2023/08/21 08:00:13;;;;;;;6.93;6.13;;;25.60;99.90;;;;;;5067511;28;20507;-76
2023/08/21 08:02:42;;;;;;;12.47;7.30;;;25.90;99.90;;;;;;5068440;28;20474;-79
2023/08/21 08:05:10;;;;;;;7.80;6.50;;;25.90;99.90;;;;;;5074319;28;20480;-77
2023/08/21 08:07:37;;;;;;;7.60;6.03;;;26.10;99.90;;;;;;5075245;28;20823;-75
2023/08/21 08:10:04;;;;;;;7.90;5.97;;;26.20;99.90;;;;;;5069576;28;20548;-76
2023/08/21 08:12:33;;;;;;;4.90;4.50;;;26.40;99.90;;;;;;5071070;28;20561;-76
2023/08/21 08:15:00;;;;;;;8.20;6.70;;;26.60;99.90;;;;;;5079335;28;20942;-76
2023/08/21 08:17:28;;;;;;;7.77;5.83;;;27.00;99.90;;;;;;5066864;28;20519;-76
2023/08/21 08:19:55;;;;;;;5.60;5.10;;;27.10;99.90;;;;;;5080681;28;20504;-76
2023/08/21 08:22:22;;;;;;;8.80;6.80;;;26.90;99.90;;;;;;5079600;28;20450;-78
2023/08/21 08:24:49;;;;;;;4.93;4.53;;;26.60;99.90;;;;;;5069024;28;20515;-76
2023/08/21 08:27:16;;;;;;;6.40;4.73;;;26.90;99.90;;;;;;5081318;28;20498;-76
2023/08/21 08:29:42;;;;;;;5.33;4.83;;;27.00;99.90;;;;;;5072156;28;20517;-76
2023/08/21 08:32:09;;;;;;;7.27;6.67;;;26.80;99.90;;;;;;5073832;28;20815;-80
2023/08/21 08:34:38;;;;;;;9.40;6.23;;;26.50;99.90;;;;;;5077242;28;20520;-76
2023/08/21 08:37:05;;;;;;;6.00;5.50;;;26.50;99.90;;;;;;5069921;28;20460;-76
2023/08/21 08:39:32;;;;;;;8.60;5.20;;;26.60;99.90;;;;;;5080266;28;20508;-81
2023/08/21 08:42:03;;;;;;;8.90;6.30;;;27.00;99.90;;;;;;5072056;28;20531;-76
2023/08/21 08:44:31;;;;;;;12.60;6.30;;;26.90;99.90;;;;;;5072119;28;20442;-76
2023/08/21 08:47:00;;;;;;;6.10;5.53;;;27.20;99.90;;;;;;5075282;28;20534;-76
2023/08/21 08:49:27;;;;;;;4.93;4.53;;;27.50;99.90;;;;;;5071215;28;20533;-76
2023/08/21 08:51:56;;;;;;;6.37;5.67;;;27.70;99.10;;;;;;5069443;28;20440;-79
2023/08/21 08:54:25;;;;;;;9.90;5.97;;;27.80;99.70;;;;;;5076397;28;20495;-79
2023/08/21 08:56:52;;;;;;;9.63;5.63;;;27.70;98.60;;;;;;5077314;28;20449;-77
2023/08/21 08:59:19;;;;;;;6.77;6.03;;;27.60;99.10;;;;;;5087709;28;20439;-76
2023/08/21 09:01:46;;;;;;;6.90;6.20;;;27.90;99.90;;;;;;5074988;28;20483;-77
2023/08/21 09:04:13;;;;;;;5.20;4.50;;;27.90;99.80;;;;;;5082948;28;20474;-76
2023/08/21 09:06:40;;;;;;;7.13;6.33;;;27.90;99.00;;;;;;5076363;28;20487;-77
2023/08/21 09:09:10;;;;;;;4.90;4.60;;;28.00;99.00;;;;;;5075853;28;20471;-79
2023/08/21 09:11:42;;;;;;;7.07;6.13;;;27.80;98.80;;;;;;5080701;28;20549;-76
2023/08/21 09:14:10;;;;;;;6.33;5.73;;;27.90;98.30;;;;;;5072357;28;20500;-77
2023/08/21 09:16:37;;;;;;;5.73;5.23;;;27.90;97.70;;;;;;5071140;28;20954;-77
2023/08/21 09:19:05;;;;;;;10.73;6.17;;;28.10;97.80;;;;;;5081528;28;20495;-79
2023/08/21 09:21:32;;;;;;;6.60;5.97;;;28.00;97.90;;;;;;5084197;28;21001;-76
2023/08/21 09:24:00;;;;;;;6.30;4.77;;;28.10;97.00;;;;;;5071827;28;20491;-78
2023/08/21 09:26:31;;;;;;;5.17;4.67;;;28.10;96.70;;;;;;5081883;28;20498;-77
2023/08/21 09:29:02;;;;;;;6.73;5.40;;;28.10;97.00;;;;;;5067994;28;20493;-76
2023/08/21 09:31:34;;;;;;;6.07;5.40;;;28.40;95.80;;;;;;5072302;28;20460;-76
2023/08/21 09:34:04;;;;;;;5.87;5.20;;;28.70;96.00;;;;;;5072340;28;20452;-76
2023/08/21 09:36:32;;;;;;;6.10;5.53;;;28.70;95.00;;;;;;5083717;28;20806;-76
2023/08/21 09:38:59;;;;;;;5.50;5.10;;;28.70;95.90;;;;;;5065616;28;20845;-76
2023/08/21 09:41:28;;;;;;;5.00;4.70;;;28.80;97.00;;;;;;5074000;28;20439;-76
2023/08/21 09:43:59;;;;;;;6.27;5.60;;;28.80;96.40;;;;;;5068564;28;20471;-74
2023/08/21 09:46:27;;;;;;;6.80;4.70;;;29.10;95.60;;;;;;5080539;28;20571;-77
2023/08/21 09:48:55;;;;;;;5.47;5.07;;;29.10;95.30;;;;;;5072030;28;20516;-76
2023/08/21 09:51:22;;;;;;;5.67;5.10;;;29.10;93.20;;;;;;5080236;28;20500;-76
2023/08/21 09:53:50;;;;;;;4.97;4.67;;;28.90;93.10;;;;;;5069841;28;20467;-79
2023/08/21 09:56:19;;;;;;;5.40;5.00;;;28.90;92.20;;;;;;5087006;28;20453;-76
2023/08/21 09:58:49;;;;;;;5.80;5.30;;;28.90;94.50;;;;;;5086974;28;20534;-76
2023/08/21 10:01:18;;;;;;;5.10;4.60;;;29.10;93.70;;;;;;5082418;28;21094;-80
2023/08/21 10:03:47;;;;;;;5.37;4.87;;;29.20;95.40;;;;;;5076229;28;20456;-76
2023/08/21 10:06:17;;;;;;;7.10;5.67;;;29.40;93.10;;;;;;5071533;28;20957;-76
2023/08/21 10:08:49;;;;;;;5.33;4.97;;;29.30;93.40;;;;;;5075464;28;20537;-76
2023/08/21 10:11:20;;;;;;;5.60;5.20;;;29.70;93.90;;;;;;5066102;28;20562;-76
2023/08/21 10:13:50;;;;;;;5.60;5.30;;;29.80;90.90;;;;;;5065612;28;20523;-77
2023/08/21 10:16:18;;;;;;;7.10;5.17;;;29.80;92.60;;;;;;5071401;28;20463;-76
2023/08/21 10:18:46;;;;;;;5.00;4.63;;;29.90;91.90;;;;;;5066422;28;20475;-76
2023/08/21 10:21:15;;;;;;;8.37;5.30;;;29.70;91.20;;;;;;5076181;28;20530;-79
2023/08/21 10:23:42;;;;;;;6.10;5.70;;;29.80;90.00;;;;;;5074965;28;20487;-78
2023/08/21 10:26:11;;;;;;;5.47;5.07;;;29.80;92.00;;;;;;5074083;28;20997;-78
2023/08/21 10:28:54;;;;;;;5.17;4.77;;;29.70;94.20;;;;;;5064900;28;20440;-77
2023/08/21 10:31:38;;;;;;;5.20;4.83;;;29.90;93.20;;;;;;5076611;28;20583;-75
2023/08/21 10:34:07;;;;;;;4.93;4.53;;;29.80;90.20;;;;;;5068094;28;20828;-79
2023/08/21 10:37:13;;;;;;;4.77;4.30;;;29.80;90.40;;;;;;5077157;28;20502;-76
2023/08/21 10:39:55;;;;;;;4.97;4.57;;;30.00;90.40;;;;;;5065779;28;20539;-78
2023/08/21 10:42:38;;;;;;;5.93;5.50;;;30.00;89.60;;;;;;5066864;28;20498;-76
2023/08/21 10:45:13;;;;;;;5.23;4.93;;;30.20;92.10;;;;;;5075785;28;20656;-77
2023/08/21 10:47:40;;;;;;;5.60;5.20;;;30.60;90.30;;;;;;5072012;28;20548;-81
2023/08/21 10:50:08;;;;;;;4.40;4.10;;;30.80;84.30;;;;;;5081648;28;20435;-81
2023/08/21 10:52:37;;;;;;;6.17;4.37;;;31.00;83.80;;;;;;5073703;28;20529;-78
2023/08/21 10:55:05;;;;;;;4.60;4.30;;;30.70;85.10;;;;;;5084370;28;20484;-80
2023/08/21 10:57:34;;;;;;;7.03;3.77;;;30.70;84.90;;;;;;5086653;28;20462;-78
2023/08/21 11:00:03;;;;;;;4.63;4.30;;;30.60;86.40;;;;;;5078594;28;20498;-78
2023/08/21 11:02:33;;;;;;;4.37;4.07;;;30.60;86.70;;;;;;5089394;28;21146;-77
2023/08/21 11:05:02;;;;;;;5.50;5.10;;;30.80;85.40;;;;;;5090677;28;20777;-77
2023/08/21 11:07:29;;;;;;;5.30;4.90;;;30.80;83.00;;;;;;5088425;28;20483;-81
2023/08/21 11:09:57;;;;;;;5.30;5.00;;;30.80;82.00;;;;;;5082444;28;20479;-76
2023/08/21 11:12:25;;;;;;;4.33;4.13;;;31.00;85.60;;;;;;5089749;28;20465;-79
2023/08/21 11:14:52;;;;;;;5.70;5.17;;;30.90;84.80;;;;;;5089121;28;21231;-79
2023/08/21 11:17:19;;;;;;;6.00;5.60;;;31.00;86.60;;;;;;5083194;28;21038;-77
2023/08/21 11:19:49;;;;;;;5.47;5.17;;;30.90;84.80;;;;;;5080635;28;21048;-78
2023/08/21 11:22:16;;;;;;;4.90;4.50;;;30.90;82.60;;;;;;5077744;28;20462;-79
2023/08/21 11:24:45;;;;;;;4.70;4.40;;;31.00;80.90;;;;;;5085627;28;20483;-81
2023/08/21 11:27:14;;;;;;;3.50;3.30;;;31.10;82.20;;;;;;5088640;28;20985;-78
2023/08/21 11:29:42;;;;;;;7.27;5.73;;;31.40;83.90;;;;;;5087275;28;20934;-78
2023/08/21 11:32:10;;;;;;;7.13;6.53;;;31.50;80.90;;;;;;5086809;28;20474;-78
2023/08/21 11:34:38;;;;;;;6.10;5.60;;;31.60;85.80;;;;;;5089263;28;20447;-77
2023/08/21 11:37:06;;;;;;;5.03;4.73;;;31.90;90.50;;;;;;5080522;28;20472;-80
2023/08/21 11:39:42;;;;;;;5.10;4.70;;;31.90;82.00;;;;;;5077743;28;21137;-81
2023/08/21 11:42:11;;;;;;;4.93;4.63;;;32.00;79.30;;;;;;5086300;28;20515;-77
2023/08/21 11:44:46;;;;;;;5.57;5.17;;;32.00;78.80;;;;;;5086199;28;20523;-82
2023/08/21 11:47:14;;;;;;;4.73;4.43;;;32.00;79.90;;;;;;5087214;28;20565;-77
2023/08/21 11:49:42;;;;;;;4.30;4.10;;;32.20;81.40;;;;;;5087689;28;20453;-77
2023/08/21 11:52:11;;;;;;;6.27;4.67;;;32.10;77.10;;;;;;5086288;28;20902;-78
2023/08/21 11:54:40;;;;;;;4.90;4.60;;;32.00;77.70;;;;;;5081045;28;20443;-77
2023/08/21 11:57:08;;;;;;;4.63;4.30;;;32.10;78.00;;;;;;5088269;28;20447;-77
2023/08/21 11:59:37;;;;;;;4.27;3.97;;;32.20;82.10;;;;;;5079966;28;20451;-79
2023/08/21 12:02:17;;;;;;;4.70;4.37;;;32.30;74.80;;;;;;5089758;28;20554;-78
2023/08/21 12:04:45;;;;;;;3.90;3.60;;;32.30;74.80;;;;;;5085642;28;20503;-77
2023/08/21 12:07:13;;;;;;;4.03;3.73;;;32.50;71.90;;;;;;5079649;28;20518;-77
2023/08/21 12:09:41;;;;;;;4.23;3.90;;;32.30;70.20;;;;;;5089256;28;20435;-77
2023/08/21 12:12:08;;;;;;;3.97;3.63;;;32.40;71.40;;;;;;5083690;28;20458;-77
2023/08/21 12:14:39;;;;;;;4.23;3.93;;;32.50;71.50;;;;;;5084088;28;20966;-78
2023/08/21 12:17:06;;;;;;;4.80;4.40;;;32.80;72.70;;;;;;5088581;28;20455;-77
2023/08/21 12:19:33;;;;;;;5.20;4.73;;;32.80;68.90;;;;;;5078844;28;20456;-78
2023/08/21 12:22:00;;;;;;;5.57;4.20;;;32.60;73.60;;;;;;5080151;28;20520;-77
2023/08/21 12:24:28;;;;;;;3.43;3.23;;;32.60;69.40;;;;;;5078653;28;21009;-78
2023/08/21 12:26:55;;;;;;;4.77;4.33;;;32.60;74.40;;;;;;5082479;28;20981;-78
2023/08/21 12:29:22;;;;;;;5.03;4.73;;;32.60;70.40;;;;;;5085907;28;20455;-77
2023/08/21 12:31:49;;;;;;;4.80;4.30;;;32.60;72.20;;;;;;5080569;28;20540;-78
2023/08/21 12:34:16;;;;;;;3.50;3.20;;;32.60;69.90;;;;;;5076656;28;20496;-77
2023/08/21 12:36:43;;;;;;;3.93;3.67;;;32.60;64.00;;;;;;5077501;28;21047;-78
2023/08/21 12:39:10;;;;;;;4.40;4.10;;;32.60;65.30;;;;;;5085957;28;20501;-80
2023/08/21 12:41:38;;;;;;;4.50;4.20;;;32.60;68.30;;;;;;5068380;28;20548;-80
2023/08/21 12:44:08;;;;;;;7.23;5.40;;;32.90;72.00;;;;;;5070247;28;20451;-76
2023/08/21 12:46:35;;;;;;;4.47;4.17;;;32.80;64.50;;;;;;5070697;28;20519;-80
2023/08/21 12:49:02;;;;;;;3.27;2.93;;;32.90;69.10;;;;;;5081874;28;20443;-77